West Point, VA

4:48 PM EST on March 06, 2015 (GMT -0500)
APRSWXNET West Point VA US | Change Station
CLOSE
Current Station
Personal Weather Station
Location: West Point, VA
Elevation: 19 ft
Nearby Weather Stations

Elev 19 ft 37.57 °N, 76.80 °W | Updated 43 minutes ago

Clear
Clear
29 °F
Feels Like 29 °F
N
1
Wind Variable Wind from NNE
Gusts 0.0 mph

Today
High -- | Low -- °F
--% Chance of Precip.
Yesterday
High -- | Low -- °F
Precip. -- in
6:31 AM 6:05 PM
Full, 99% visible
Pressure 30.48 in
Visibility 10.0 miles
Clouds Clear
Windchill 29 °F
Dew Point 18 °F
Humidity 62%
Rainfall in
Snow Depth Not available.
UV 1 out of 12
Pollen 4.00 out of 12
Air Quality Not available.
Flu Activity Not available.
METAR KFYJ 062135Z AUTO 33004KT 10SM CLR 00/M12 A3048 RMK AO2 T10011117

More Conditions Fewer Conditions

Pressure 30.48 in
Visibility 10.0 miles
Clouds Clear
Windchill 29 °F
Dew Point 18 °F
Humidity 62%
Rainfall in
Snow Depth Not available.
UV 1 out of 12
Pollen 4.00 out of 12
Air Quality Not available.
Flu Activity Not available.
METAR KFYJ 062135Z AUTO 33004KT 10SM CLR 00/M12 A3048 RMK AO2 T10011117

More Conditions Fewer Conditions

10-Day Weather Forecast

Almanac

Astronomy

Mar. 06, 2015 Rise Set
Actual Time
Civil Twilight
Nautical Twilight
Astronomical Twilight
Moon
Length of Visible Light
Length of Day
Tomorrow will be .
, % of the Moon is Illuminated

Today's Extremes

State Highs State Lows

Community

WunderPhotos

Upload Photos

1,803,406 photos uploaded!

WunderBlogs® & News

Nearby

Air Quality

  Air Quality AQ Index Pollutant
Not available.

Snow Depth

Station Depth Elevation

Earthquake Activity

City Distance Mag. Time & Date
Minimum magnitude displayed is 2.5.

Coastal Water Temperatures

Place Temperature

Nearby Weather Stations